Rosendale, NY

7:52 PM EDT on September 23, 2014 (GMT -0400)
Stewart International | Change Station
CLOSE
Current Station
Airport
Location: Newburgh,
Elevation: 492 ft
Nearby Weather Stations

Elev 492 ft 41.50 °N, 74.10 °W | Updated 7 minutes ago

Clear
Clear
61 °F
Feels Like 61 °F
N
0
Wind Variable Wind from North

Today
High -- | Low -- °F
--% Chance of Precip.
Yesterday
High -- | Low -- °F
Precip. -- in
6:44 AM 6:51 PM
Waning Crescent, 0% visible
Pressure 30.35 in
Visibility 10.0 miles
Clouds Clear
Dew Point 52 °F
Humidity 72%
Rainfall 0.00 in
Snow Depth Not available.
UV 0 out of 12
Pollen 2.50 out of 12
PM2.5 Good
Flu Activity Not available.
METAR KSWF 232345Z 00000KT 10SM SKC 16/11 A3035

More Conditions Fewer Conditions

Pressure 30.35 in
Visibility 10.0 miles
Clouds Clear
Dew Point 52 °F
Humidity 72%
Rainfall 0.00 in
Snow Depth Not available.
UV 0 out of 12
Pollen 2.50 out of 12
PM2.5 Good
Flu Activity Not available.
METAR KSWF 232345Z 00000KT 10SM SKC 16/11 A3035

More Conditions Fewer Conditions

10-Day Weather Forecast

Almanac

Astronomy

Sep. 23, 2014 Rise Set
Actual Time 6:44 AM EDT 6:51 PM EDT
Civil Twilight 6:16 AM EDT 7:19 PM EDT
Nautical Twilight 5:44 AM EDT 7:52 PM EDT
Astronomical Twilight 5:11 AM EDT 8:25 PM EDT
Moon 6:06 AM EDT 6:29 PM EDT
Length of Visible Light 13h 02m
Length of Day
12h 07m
Tomorrow will be 2m 48s shorter.
Waning Crescent, 0% of the Moon is Illuminated
Today
Waning Crescent
Sep 24
New
Oct 1
First Quarter
Oct 8
Full
Oct 15
Last Quarter

Today's Extremes

State Highs State Lows

Community

WunderPhotos

Upload Photos

1,755,821 photos uploaded!

WunderBlogs® & News

Nearby

Air Quality

  Air Quality AQ Index Pollutant
Yesterday Good
OZONE
Yesterday Good
PM2.5
Current Good
PM2.5
Tuesday Good
OZONE
Tuesday Good
PM2.5
Wednesday Good
OZONE
Wednesday Good
PM2.5

Snow Depth

Station Depth Elevation
No new snow has been reported.

Earthquake Activity

City Distance Mag. Time & Date
No recent earthquake activity has been reported nearby.
Minimum magnitude displayed is 2.5.

Coastal Water Temperatures

Place Temperature
No Stations Reporting

Nearby Weather Stations